createdAt,value
2018-11-20T00:02:50.084Z,0.70
2018-11-20T00:05:57.468Z,0.70
2018-11-20T00:09:04.826Z,0.80
2018-11-20T00:12:12.969Z,0.70
2018-11-20T00:15:20.685Z,0.60
2018-11-20T00:18:28.034Z,0.70
2018-11-20T00:21:33.511Z,0.60
2018-11-20T00:24:40.877Z,0.50
2018-11-20T00:27:48.200Z,0.50
2018-11-20T00:30:55.556Z,0.50
2018-11-20T00:34:02.965Z,0.50
2018-11-20T00:37:10.305Z,0.50
2018-11-20T00:40:17.661Z,0.50
2018-11-20T00:43:24.662Z,0.50
2018-11-20T00:46:32.021Z,0.50
2018-11-20T00:49:39.345Z,0.70
2018-11-20T00:52:46.719Z,0.50
2018-11-20T00:56:13.007Z,0.50
2018-11-20T00:59:20.342Z,0.60
2018-11-20T01:02:27.703Z,0.60
2018-11-20T01:05:35.107Z,0.60
2018-11-20T01:08:40.660Z,0.50
2018-11-20T01:11:48.872Z,0.60
2018-11-20T01:14:44.681Z,0.60
2018-11-20T01:17:52.032Z,0.50
2018-11-20T01:20:57.629Z,0.50
2018-11-20T01:24:05.285Z,0.50
2018-11-20T01:27:01.706Z,0.60
2018-11-20T01:30:09.035Z,0.50
2018-11-20T01:33:17.217Z,0.60
2018-11-20T01:36:24.810Z,0.60
2018-11-20T01:39:32.994Z,0.60
2018-11-20T01:42:40.388Z,0.60
2018-11-20T01:45:48.125Z,0.60
2018-11-20T01:48:56.331Z,0.60
2018-11-20T01:52:03.712Z,0.60
2018-11-20T01:55:00.374Z,0.70
2018-11-20T01:58:07.730Z,0.70
2018-11-20T02:01:15.084Z,0.80
2018-11-20T02:04:22.473Z,0.80
2018-11-20T02:07:22.940Z,0.90
2018-11-20T02:10:30.305Z,0.90
2018-11-20T02:13:56.910Z,0.90
2018-11-20T02:17:08.848Z,0.90
2018-11-20T02:20:17.070Z,0.90
2018-11-20T02:23:25.241Z,0.90
2018-11-20T02:26:32.628Z,1.00
2018-11-20T02:29:40.000Z,1.00
2018-11-20T02:32:47.343Z,1.10
2018-11-20T02:35:55.013Z,1.10
2018-11-20T02:39:02.336Z,1.20
2018-11-20T02:42:09.700Z,1.20
2018-11-20T02:45:17.061Z,1.20
2018-11-20T02:48:24.408Z,1.30
2018-11-20T02:51:31.866Z,1.30
2018-11-20T02:54:39.951Z,1.30
2018-11-20T02:57:47.286Z,1.40
2018-11-20T03:00:54.648Z,1.40
2018-11-20T03:03:53.000Z,1.40
2018-11-20T03:07:00.265Z,1.40
2018-11-20T03:10:07.619Z,1.40
2018-11-20T03:13:14.976Z,1.40
2018-11-20T03:16:22.630Z,1.40
2018-11-20T03:19:29.969Z,1.40
2018-11-20T03:22:37.319Z,1.40
2018-11-20T03:26:03.921Z,1.50
2018-11-20T03:29:13.469Z,1.40
2018-11-20T03:32:21.661Z,1.40
2018-11-20T03:35:21.396Z,1.40
2018-11-20T03:38:28.770Z,1.40
2018-11-20T03:41:36.123Z,1.40
2018-11-20T03:44:43.458Z,1.50
2018-11-20T03:47:50.879Z,1.40
2018-11-20T03:50:58.452Z,1.50
2018-11-20T03:54:05.819Z,1.50
2018-11-20T03:57:13.195Z,1.40
2018-11-20T04:00:21.383Z,1.40
2018-11-20T04:03:28.736Z,1.40
2018-11-20T04:06:36.069Z,1.30
2018-11-20T04:09:43.428Z,1.30
2018-11-20T04:12:50.793Z,1.20
2018-11-20T04:15:58.117Z,1.20
2018-11-20T04:19:05.483Z,1.20
2018-11-20T04:22:12.844Z,1.20
2018-11-20T04:25:20.179Z,1.10
2018-11-20T04:28:27.797Z,1.10
2018-11-20T04:31:54.067Z,1.10
2018-11-20T04:35:02.619Z,1.10
2018-11-20T04:38:10.013Z,1.00
2018-11-20T04:41:17.441Z,1.10
2018-11-20T04:44:24.723Z,1.10
2018-11-20T04:47:32.437Z,1.10
2018-11-20T04:50:39.796Z,1.10
2018-11-20T04:53:47.159Z,1.00
2018-11-20T04:56:54.493Z,1.10
2018-11-20T05:00:01.887Z,1.10
2018-11-20T05:03:09.506Z,1.10
2018-11-20T05:06:16.890Z,1.00
2018-11-20T05:09:26.476Z,1.00
2018-11-20T05:12:34.210Z,1.20
2018-11-20T05:15:41.562Z,1.30
2018-11-20T05:18:49.760Z,1.20
2018-11-20T05:21:57.410Z,1.20
2018-11-20T05:25:04.767Z,1.30
2018-11-20T05:28:12.463Z,1.30
2018-11-20T05:31:19.716Z,1.20
2018-11-20T05:37:42.469Z,1.20
2018-11-20T05:40:49.818Z,1.30
2018-11-20T05:43:57.145Z,1.30
2018-11-20T05:47:04.517Z,1.30
2018-11-20T05:50:11.838Z,1.40
2018-11-20T05:53:10.401Z,1.40
2018-11-20T05:56:18.051Z,1.40
2018-11-20T05:59:25.378Z,1.50
2018-11-20T06:02:32.746Z,1.50
2018-11-20T06:05:40.104Z,1.60
2018-11-20T06:08:47.490Z,1.50
2018-11-20T06:11:51.141Z,1.50
2018-11-20T06:14:58.670Z,1.60
2018-11-20T06:18:06.027Z,1.50
2018-11-20T06:21:13.355Z,1.60
2018-11-20T06:24:20.713Z,1.70
2018-11-20T06:27:28.115Z,1.60
2018-11-20T06:30:35.716Z,1.70
2018-11-20T06:33:33.423Z,1.70
2018-11-20T06:36:40.760Z,1.70
2018-11-20T06:39:48.126Z,1.80
2018-11-20T06:42:55.552Z,1.70
2018-11-20T06:46:02.942Z,1.70
2018-11-20T06:49:11.176Z,1.70
2018-11-20T06:52:18.507Z,1.80
2018-11-20T06:55:26.010Z,1.90
2018-11-20T06:58:33.409Z,1.90
2018-11-20T07:01:40.795Z,1.80
2018-11-20T07:04:48.170Z,1.90
2018-11-20T07:07:55.559Z,1.90
2018-11-20T07:11:02.890Z,1.90
2018-11-20T07:14:29.203Z,1.90
2018-11-20T07:17:47.819Z,1.90
2018-11-20T07:20:55.185Z,1.90
2018-11-20T07:24:03.175Z,1.90
2018-11-20T07:27:10.538Z,1.90
2018-11-20T07:30:18.503Z,2.00
2018-11-20T07:33:25.670Z,2.10
2018-11-20T07:36:33.107Z,2.20
2018-11-20T07:39:35.594Z,2.20
2018-11-20T07:42:35.414Z,2.20
2018-11-20T07:45:34.982Z,2.10
2018-11-20T07:48:34.972Z,2.20
2018-11-20T07:51:35.290Z,2.20
2018-11-20T07:54:34.864Z,2.20
2018-11-20T07:57:34.748Z,2.20
2018-11-20T08:00:27.748Z,2.20
2018-11-20T08:03:26.285Z,2.20
2018-11-20T08:06:33.739Z,2.30
2018-11-20T08:09:41.985Z,2.30
2018-11-20T08:12:49.348Z,2.40
2018-11-20T08:15:56.751Z,2.40
2018-11-20T08:19:04.168Z,2.40
2018-11-20T08:22:11.541Z,2.50
2018-11-20T08:25:18.954Z,2.50
2018-11-20T08:28:19.363Z,2.50
2018-11-20T08:31:26.709Z,2.50
2018-11-20T08:34:34.171Z,2.60
2018-11-20T08:37:41.552Z,2.60
2018-11-20T08:40:48.907Z,2.60
2018-11-20T08:43:56.284Z,2.60
2018-11-20T08:47:03.637Z,2.60
2018-11-20T08:50:11.326Z,2.60
2018-11-20T08:53:18.703Z,2.60
2018-11-20T08:56:26.875Z,2.60
2018-11-20T08:59:34.271Z,2.70
2018-11-20T09:02:41.709Z,2.70
2018-11-20T09:05:49.027Z,2.80
2018-11-20T09:08:56.443Z,2.80
2018-11-20T09:12:03.824Z,2.80
2018-11-20T09:15:11.206Z,2.90
2018-11-20T09:18:18.549Z,2.90
2018-11-20T09:21:26.691Z,2.90
2018-11-20T09:24:34.029Z,2.90
2018-11-20T09:27:41.443Z,2.90
2018-11-20T09:30:43.959Z,2.90
2018-11-20T09:33:51.301Z,3.00
2018-11-20T09:36:58.712Z,3.00
2018-11-20T09:40:18.425Z,3.00
2018-11-20T09:43:25.772Z,3.00
2018-11-20T09:46:33.183Z,3.10
2018-11-20T09:49:40.543Z,3.10
2018-11-20T09:52:48.145Z,3.10
2018-11-20T09:55:55.345Z,3.10
2018-11-20T09:59:02.702Z,3.10
2018-11-20T10:02:10.046Z,3.20
2018-11-20T10:05:17.465Z,3.10
2018-11-20T10:08:24.808Z,3.10
2018-11-20T10:11:32.187Z,3.10
2018-11-20T10:14:31.457Z,3.20
2018-11-20T10:17:38.830Z,3.20
2018-11-20T10:20:46.233Z,3.20
2018-11-20T10:23:53.632Z,3.20
2018-11-20T10:27:00.928Z,3.10
2018-11-20T10:33:15.669Z,2.90
2018-11-20T10:36:23.040Z,2.80
2018-11-20T10:39:30.385Z,2.60
2018-11-20T10:42:38.150Z,2.50
2018-11-20T10:45:45.497Z,2.40
2018-11-20T10:48:52.865Z,2.20
2018-11-20T10:52:00.291Z,2.00
2018-11-20T10:55:08.497Z,1.80
2018-11-20T10:58:15.864Z,2.10
2018-11-20T11:01:23.228Z,2.10
2018-11-20T11:07:37.548Z,2.20
2018-11-20T11:10:44.776Z,2.20
2018-11-20T11:13:52.180Z,2.10
2018-11-20T11:16:59.516Z,2.00
2018-11-20T11:20:07.199Z,1.90
2018-11-20T11:23:03.246Z,2.00
2018-11-20T11:26:10.630Z,1.90
2018-11-20T11:29:18.051Z,1.90
2018-11-20T11:32:25.775Z,1.90
2018-11-20T11:35:33.157Z,1.80
2018-11-20T11:38:40.563Z,1.90
2018-11-20T11:41:47.933Z,1.80
2018-11-20T11:44:55.333Z,1.70
2018-11-20T11:48:02.689Z,2.00
2018-11-20T11:51:10.052Z,1.90
2018-11-20T11:54:17.427Z,2.00
2018-11-20T11:57:24.772Z,2.10
2018-11-20T12:00:32.756Z,2.00
2018-11-20T12:03:40.162Z,2.10
2018-11-20T12:06:47.561Z,2.10
2018-11-20T12:09:46.459Z,2.10
2018-11-20T12:12:53.844Z,2.00
2018-11-20T12:16:02.064Z,2.10
2018-11-20T12:19:09.414Z,2.30
2018-11-20T12:22:16.803Z,2.20
2018-11-20T12:25:24.364Z,2.30
2018-11-20T12:31:36.986Z,2.50
2018-11-20T12:34:44.338Z,2.50
2018-11-20T12:37:45.761Z,2.30
2018-11-20T12:40:53.394Z,2.30
2018-11-20T12:44:01.516Z,2.30
2018-11-20T12:47:09.367Z,2.40
2018-11-20T12:50:10.666Z,2.30
2018-11-20T12:53:16.421Z,2.40
2018-11-20T12:56:23.859Z,2.30
2018-11-20T12:59:31.226Z,2.20
2018-11-20T13:02:40.082Z,2.20
2018-11-20T13:05:45.937Z,2.30
2018-11-20T13:08:53.307Z,2.30
2018-11-20T13:15:21.097Z,2.20
2018-11-20T13:18:28.948Z,2.30
2018-11-20T13:21:26.604Z,2.40
2018-11-20T13:24:33.986Z,2.30
2018-11-20T13:27:41.344Z,2.30
2018-11-20T13:30:49.578Z,2.30
2018-11-20T13:33:38.114Z,2.30
2018-11-20T13:36:45.840Z,2.30
2018-11-20T13:39:53.212Z,2.30
2018-11-20T13:43:01.648Z,2.30
2018-11-20T13:46:09.876Z,2.40
2018-11-20T13:49:17.253Z,2.30
2018-11-20T13:54:59.529Z,2.50
2018-11-20T13:58:06.880Z,2.50
2018-11-20T14:01:14.268Z,2.50
2018-11-20T14:04:10.058Z,2.60
2018-11-20T14:07:17.357Z,2.50
2018-11-20T14:10:26.135Z,2.50
2018-11-20T14:13:33.473Z,2.40
2018-11-20T14:16:40.853Z,2.50
2018-11-20T14:19:48.220Z,2.40
2018-11-20T14:22:55.790Z,2.50
2018-11-20T14:26:03.012Z,2.50
2018-11-20T14:29:10.464Z,2.50
2018-11-20T14:32:17.775Z,2.40
2018-11-20T14:35:25.243Z,2.50
2018-11-20T14:38:32.630Z,2.50
2018-11-20T14:41:40.020Z,2.60
2018-11-20T14:44:29.709Z,2.60
2018-11-20T14:46:56.740Z,2.60
2018-11-20T14:55:03.930Z,2.50
2018-11-20T15:02:35.926Z,2.50
2018-11-20T15:05:03.394Z,2.50
2018-11-20T15:10:01.407Z,2.50
2018-11-20T15:15:00.826Z,2.50
2018-11-20T15:20:00.903Z,2.50
2018-11-20T15:27:36.201Z,2.50
2018-11-20T15:30:43.581Z,2.50
2018-11-20T15:33:50.968Z,2.50
2018-11-20T15:36:58.328Z,2.50
2018-11-20T15:40:06.122Z,2.50
2018-11-20T15:43:13.500Z,2.50
2018-11-20T15:46:20.874Z,2.60
2018-11-20T15:49:29.106Z,2.70
2018-11-20T15:52:35.633Z,2.60
2018-11-20T15:55:43.013Z,2.60
2018-11-20T15:58:50.351Z,2.50
2018-11-20T16:01:57.730Z,2.60
2018-11-20T16:05:05.951Z,2.50
2018-11-20T16:08:13.301Z,2.60
2018-11-20T16:11:20.685Z,2.60
2018-11-20T16:14:28.031Z,2.60
2018-11-20T16:17:35.401Z,2.50
2018-11-20T16:20:42.773Z,2.50
2018-11-20T16:23:50.112Z,2.60
2018-11-20T16:26:57.516Z,2.60
2018-11-20T16:30:04.854Z,2.50
2018-11-20T16:33:12.231Z,2.50
2018-11-20T16:36:19.597Z,2.60
2018-11-20T16:42:51.411Z,2.60
2018-11-20T16:45:58.779Z,2.60
2018-11-20T16:49:06.427Z,2.60
2018-11-20T16:52:14.104Z,2.60
2018-11-20T16:55:21.445Z,2.60
2018-11-20T16:58:28.891Z,2.60
2018-11-20T17:01:36.535Z,2.70
2018-11-20T17:04:43.906Z,2.60
2018-11-20T17:07:54.212Z,2.70
2018-11-20T17:10:58.936Z,2.60
2018-11-20T17:14:07.139Z,2.60
2018-11-20T17:17:14.515Z,2.60
2018-11-20T17:20:21.933Z,2.60
2018-11-20T17:23:23.465Z,2.60
2018-11-20T17:26:30.844Z,2.70
2018-11-20T17:29:38.228Z,2.60
2018-11-20T17:32:45.594Z,2.70
2018-11-20T17:35:52.966Z,2.60
2018-11-20T17:39:00.314Z,2.70
2018-11-20T17:42:07.657Z,2.70
2018-11-20T17:45:15.025Z,2.60
2018-11-20T17:48:22.415Z,2.70
2018-11-20T17:51:29.747Z,2.70
2018-11-20T17:54:37.144Z,2.60
2018-11-20T17:57:44.488Z,2.60
2018-11-20T18:00:51.864Z,2.60
2018-11-20T18:03:59.272Z,2.70
2018-11-20T18:07:06.617Z,2.70
2018-11-20T18:10:14.029Z,2.70
2018-11-20T18:13:21.366Z,2.70
2018-11-20T18:16:28.739Z,2.70
2018-11-20T18:19:36.104Z,2.60
2018-11-20T18:22:35.699Z,2.70
2018-11-20T18:25:35.904Z,2.70
2018-11-20T18:28:36.306Z,2.70
2018-11-20T18:31:36.086Z,2.70
2018-11-20T18:34:36.531Z,2.70
2018-11-20T18:37:38.943Z,2.70
2018-11-20T18:40:38.709Z,2.70
2018-11-20T18:43:38.778Z,2.70
2018-11-20T18:46:45.130Z,2.80
2018-11-20T18:49:44.736Z,2.70
2018-11-20T18:52:52.885Z,2.70
2018-11-20T18:55:52.766Z,2.70
2018-11-20T18:59:00.135Z,2.70
2018-11-20T19:02:07.500Z,2.70
2018-11-20T19:05:15.905Z,2.70
2018-11-20T19:08:23.279Z,2.80
2018-11-20T19:11:31.224Z,2.80
2018-11-20T19:14:38.556Z,2.70
2018-11-20T19:17:45.906Z,2.70
2018-11-20T19:20:53.264Z,2.70
2018-11-20T19:24:00.608Z,2.70
2018-11-20T19:27:07.960Z,2.70
2018-11-20T19:30:15.485Z,2.70
2018-11-20T19:33:22.871Z,2.80
2018-11-20T19:36:30.237Z,2.70
2018-11-20T19:39:56.507Z,2.80
2018-11-20T19:43:03.905Z,2.80
2018-11-20T19:46:11.228Z,2.70
2018-11-20T19:49:18.599Z,2.70
2018-11-20T19:52:25.961Z,2.70
2018-11-20T19:55:33.297Z,2.70
2018-11-20T19:58:40.659Z,2.60
2018-11-20T20:01:47.991Z,2.60
2018-11-20T20:04:55.347Z,2.50
2018-11-20T20:08:02.702Z,2.50
2018-11-20T20:11:10.036Z,2.50
2018-11-20T20:14:17.599Z,2.40
2018-11-20T20:17:24.999Z,2.40
2018-11-20T20:22:24.280Z,2.40
2018-11-20T20:25:24.084Z,2.30
2018-11-20T20:28:23.956Z,2.20
2018-11-20T20:31:16.825Z,2.20
2018-11-20T20:34:16.814Z,2.30
2018-11-20T20:43:27.985Z,1.90
2018-11-20T20:46:28.202Z,1.80
2018-11-20T20:49:28.085Z,1.80
2018-11-20T20:52:30.783Z,1.70
2018-11-20T20:55:30.278Z,1.70
2018-11-20T20:58:35.964Z,1.60
2018-11-20T21:01:33.857Z,1.60
2018-11-20T21:04:37.004Z,1.50
2018-11-20T21:07:39.808Z,1.50
2018-11-20T21:10:36.959Z,1.50
2018-11-20T21:13:36.708Z,1.40
2018-11-20T21:16:36.664Z,1.40
2018-11-20T21:19:36.375Z,1.30
2018-11-20T21:22:36.322Z,1.30
2018-11-20T21:25:42.300Z,1.30
2018-11-20T21:28:42.649Z,1.20
2018-11-20T21:31:42.535Z,1.20
2018-11-20T21:34:35.524Z,1.20
2018-11-20T21:37:29.636Z,1.20
2018-11-20T21:40:29.065Z,1.20
2018-11-20T21:43:31.901Z,1.10
2018-11-20T21:46:32.216Z,1.10
2018-11-20T21:49:32.274Z,1.00
2018-11-20T21:52:30.277Z,0.90
2018-11-20T21:55:30.099Z,0.80
2018-11-20T21:58:36.122Z,0.80
2018-11-20T22:01:35.625Z,0.90
2018-11-20T22:04:35.856Z,0.90
2018-11-20T22:07:35.484Z,1.00
2018-11-20T22:10:35.842Z,1.00
2018-11-20T22:13:30.593Z,1.00
2018-11-20T22:16:30.264Z,1.00
2018-11-20T22:19:30.366Z,0.90
2018-11-20T22:22:33.188Z,0.90
2018-11-20T22:25:32.807Z,0.90
2018-11-20T22:28:32.775Z,0.90
2018-11-20T22:31:32.826Z,0.80
2018-11-20T22:34:35.512Z,0.80
2018-11-20T22:37:30.413Z,0.70
2018-11-20T22:40:30.366Z,0.70
2018-11-20T22:43:21.900Z,0.70
2018-11-20T22:46:27.921Z,0.70
2018-11-20T22:49:28.339Z,0.70
2018-11-20T22:52:28.403Z,0.60
2018-11-20T22:55:28.510Z,0.60
2018-11-20T22:58:24.634Z,0.60
2018-11-20T23:01:24.233Z,0.60
2018-11-20T23:04:24.292Z,0.60
2018-11-20T23:07:24.888Z,0.50
2018-11-20T23:10:05.512Z,0.40
2018-11-20T23:12:46.658Z,0.50
2018-11-20T23:15:25.609Z,0.40
2018-11-20T23:18:14.286Z,0.40
2018-11-20T23:20:55.515Z,0.40
2018-11-20T23:23:36.358Z,0.30
2018-11-20T23:26:16.708Z,0.30
2018-11-20T23:28:57.795Z,0.40
2018-11-20T23:31:38.792Z,0.30
2018-11-20T23:34:19.983Z,0.30
2018-11-20T23:37:00.452Z,0.30
2018-11-20T23:39:40.976Z,0.30
2018-11-20T23:42:23.931Z,0.30
2018-11-20T23:45:02.642Z,0.30
2018-11-20T23:47:43.835Z,0.20
2018-11-20T23:50:24.936Z,0.30
2018-11-20T23:53:05.797Z,0.20
2018-11-20T23:55:46.419Z,0.10
2018-11-20T23:58:27.432Z,0.10
